Time;durP1;ratioP1;P1;durP2;ratioP2;P2;SDS_P1;SDS_P2;PMS_P1;PMS_P2;Temp;Humidity;BMP_temperature;BMP_pressure;BME280_temperature;BME280_humidity;BME280_pressure;Samples;Min_cycle;Max_cycle;Signal;HPM_P1;HPM_P2
2023/06/01 00:01:57;46264.00;0.15;80.72;0.00;0.00;0.62;;;;;19.00;1.00;;;;;;2272345;61;2002;-87
2023/06/01 00:04:25;136204.00;0.45;236.03;0.00;0.00;0.62;;;;;18.90;1.00;;;;;;2272473;61;981;-87
2023/06/01 00:06:52;224790.00;0.75;388.59;0.00;0.00;0.62;;;;;18.90;1.00;;;;;;2272479;61;1198;-86
2023/06/01 00:09:19;137980.00;0.46;239.09;0.00;0.00;0.62;;;;;18.80;1.00;;;;;;2272432;61;1606;-86
2023/06/01 00:11:46;127761.00;0.43;221.47;0.00;0.00;0.62;;;;;18.90;1.00;;;;;;2272431;61;1107;-85
2023/06/01 00:14:13;142538.00;0.48;246.95;0.00;0.00;0.62;;;;;18.90;1.00;;;;;;2272389;61;993;-86
2023/06/01 00:16:40;108546.00;0.36;188.32;0.00;0.00;0.62;;;;;18.90;1.00;;;;;;2272435;61;1287;-87
2023/06/01 00:19:07;293538.00;0.98;506.81;0.00;0.00;0.62;;;;;18.80;1.00;;;;;;2272390;61;1605;-87
2023/06/01 00:21:36;61224.00;0.20;106.59;0.00;0.00;0.62;;;;;18.60;1.00;;;;;;2272232;61;2006;-85
2023/06/01 00:24:03;84252.00;0.28;146.38;0.00;0.00;0.62;;;;;18.60;1.00;;;;;;2272338;61;975;-87
2023/06/01 00:26:31;271156.00;0.90;468.33;29981.00;0.10;52.55;;;;;18.50;1.00;;;;;;2272341;61;1419;-87
2023/06/01 00:28:58;20629.00;0.07;36.36;0.00;0.00;0.62;;;;;18.60;1.00;;;;;;2272323;61;1142;-86
2023/06/01 00:31:25;206470.00;0.69;357.06;0.00;0.00;0.62;;;;;18.60;1.00;;;;;;2272379;61;1044;-87
2023/06/01 00:33:52;28645.00;0.10;50.24;0.00;0.00;0.62;;;;;18.60;1.00;;;;;;2272349;61;1075;-88
2023/06/01 00:36:19;37931.00;0.13;66.31;0.00;0.00;0.62;;;;;18.60;1.00;;;;;;2272328;61;1410;-85
2023/06/01 00:38:47;90552.00;0.30;157.26;0.00;0.00;0.62;;;;;18.60;1.00;;;;;;2272367;61;1144;-86
2023/06/01 00:41:14;109775.00;0.37;190.44;0.00;0.00;0.62;;;;;18.40;1.00;;;;;;2272357;61;2002;-85
2023/06/01 00:43:41;120453.00;0.40;208.86;20685.00;0.07;36.46;;;;;18.60;1.00;;;;;;2272363;61;1039;-86
2023/06/01 00:46:09;51152.00;0.17;89.18;0.00;0.00;0.62;;;;;18.70;1.00;;;;;;2272283;61;1299;-86
2023/06/01 00:48:37;219184.00;0.73;378.94;0.00;0.00;0.62;;;;;18.70;1.00;;;;;;2272371;61;1259;-86
2023/06/01 00:51:04;100102.00;0.33;173.75;0.00;0.00;0.62;;;;;18.90;1.00;;;;;;2272226;61;1011;-86
2023/06/01 00:53:31;7095.00;0.02;12.92;0.00;0.00;0.62;;;;;19.00;1.00;;;;;;2272319;61;1114;-88
2023/06/01 00:55:59;41064.00;0.14;71.73;0.00;0.00;0.62;;;;;18.70;1.00;;;;;;2272328;61;1276;-87
2023/06/01 00:58:26;78170.00;0.26;135.88;0.00;0.00;0.62;;;;;18.80;1.00;;;;;;2272308;61;1041;-86
2023/06/01 01:00:54;201593.00;0.67;348.67;49404.00;0.16;86.16;;;;;18.50;1.00;;;;;;2272253;61;1060;-88
2023/06/01 01:03:21;208445.00;0.69;360.46;0.00;0.00;0.62;;;;;18.60;1.00;;;;;;2272231;61;2009;-86
2023/06/01 01:05:50;28247.00;0.09;49.55;0.00;0.00;0.62;;;;;18.30;1.00;;;;;;2272291;61;1292;-86
2023/06/01 01:08:25;75264.00;0.25;130.86;0.00;0.00;0.62;;;;;18.40;1.00;;;;;;2272108;61;921;-86
2023/06/01 01:11:03;39291.00;0.13;68.66;0.00;0.00;0.62;;;;;18.30;1.00;;;;;;2272263;61;1122;-87
2023/06/01 01:13:42;142018.00;0.47;246.05;0.00;0.00;0.62;;;;;18.10;1.00;;;;;;2272200;61;1039;-86
2023/06/01 01:16:15;154392.00;0.51;267.38;0.00;0.00;0.62;;;;;18.20;1.00;;;;;;2272170;61;1685;-87
2023/06/01 01:18:54;150798.00;0.50;261.18;0.00;0.00;0.62;;;;;18.30;1.00;;;;;;2272113;61;1057;-87
2023/06/01 01:21:27;96163.00;0.32;166.95;0.00;0.00;0.62;;;;;18.80;1.00;;;;;;2272291;61;1071;-87
2023/06/01 01:24:16;299858.00;1.00;517.68;86654.00;0.29;150.53;;;;;19.20;1.00;;;;;;2272222;61;1133;-87
2023/06/01 01:26:57;98195.00;0.33;170.46;0.00;0.00;0.62;;;;;18.80;1.00;;;;;;2272070;61;1354;-87
2023/06/01 01:29:29;77270.00;0.26;134.32;0.00;0.00;0.62;;;;;18.50;1.00;;;;;;2272156;61;1068;-87
2023/06/01 01:31:57;105562.00;0.35;183.17;0.00;0.00;0.62;;;;;18.30;1.00;;;;;;2272211;61;1060;-86
2023/06/01 01:34:28;214866.00;0.72;371.51;60292.00;0.20;104.98;;;;;18.10;1.00;;;;;;2272265;61;982;-87
2023/06/01 01:36:55;91205.00;0.30;158.39;0.00;0.00;0.62;;;;;18.00;1.00;;;;;;2272157;61;1294;-87
2023/06/01 01:39:22;132714.00;0.44;230.01;0.00;0.00;0.62;;;;;18.10;1.00;;;;;;2272206;61;992;-87
2023/06/01 01:41:49;74455.00;0.25;129.46;0.00;0.00;0.62;;;;;18.10;1.00;;;;;;2272141;61;2005;-89
2023/06/01 01:44:17;201530.00;0.67;348.56;0.00;0.00;0.62;;;;;18.10;1.00;;;;;;2272235;61;947;-87
2023/06/01 01:46:55;203582.00;0.68;352.09;0.00;0.00;0.62;;;;;18.20;1.00;;;;;;2272169;61;1383;-86
2023/06/01 01:49:29;131049.00;0.44;227.14;0.00;0.00;0.62;;;;;18.20;1.00;;;;;;2272228;61;1165;-86
2023/06/01 01:52:07;28800.00;0.10;50.51;0.00;0.00;0.62;;;;;18.40;1.00;;;;;;2272140;61;956;-85
2023/06/01 01:54:38;11011.00;0.04;19.70;0.00;0.00;0.62;;;;;18.10;1.00;;;;;;2272176;61;1086;-86
2023/06/01 01:57:06;118868.00;0.40;206.13;0.00;0.00;0.62;;;;;18.40;1.00;;;;;;2272183;61;1181;-86
2023/06/01 01:59:34;26176.00;0.09;45.96;0.00;0.00;0.62;;;;;18.50;1.00;;;;;;2272060;61;950;-87
2023/06/01 02:02:03;42222.00;0.14;73.73;0.00;0.00;0.62;;;;;18.40;1.00;;;;;;2272048;61;1915;-87
2023/06/01 02:04:30;76245.00;0.25;132.55;0.00;0.00;0.62;;;;;18.10;1.00;;;;;;2272094;61;1064;-87
2023/06/01 02:06:57;250169.00;0.83;432.24;0.00;0.00;0.62;;;;;18.30;1.00;;;;;;2272081;61;1448;-85
2023/06/01 02:09:24;86794.00;0.29;150.77;0.00;0.00;0.62;;;;;18.30;1.00;;;;;;2272140;61;1007;-86
2023/06/01 02:11:50;222400.00;0.74;384.47;48340.00;0.16;84.32;;;;;18.20;1.00;;;;;;2272104;61;1138;-86
2023/06/01 02:14:17;190765.00;0.64;330.03;0.00;0.00;0.62;;;;;18.30;1.00;;;;;;2271992;61;919;-87
2023/06/01 02:16:45;277677.00;0.93;479.54;0.00;0.00;0.62;;;;;18.40;1.00;;;;;;2272026;61;1281;-85
2023/06/01 02:19:15;62261.00;0.21;108.39;0.00;0.00;0.62;;;;;18.40;1.00;;;;;;2272096;61;1058;-86
2023/06/01 02:21:42;85874.00;0.29;149.18;0.00;0.00;0.62;;;;;18.30;1.00;;;;;;2272587;61;1686;-87
2023/06/01 02:24:09;114062.00;0.38;197.84;0.00;0.00;0.62;;;;;18.30;1.00;;;;;;2272624;61;1999;-87
2023/06/01 02:26:36;230489.00;0.77;398.39;0.00;0.00;0.62;;;;;18.10;1.00;;;;;;2272834;61;1329;-86
2023/06/01 02:29:04;53521.00;0.18;93.28;0.00;0.00;0.62;;;;;18.10;1.00;;;;;;2272728;61;1534;-87
2023/06/01 02:31:32;86063.00;0.29;149.51;0.00;0.00;0.62;;;;;18.00;1.00;;;;;;2272797;61;1205;-87
2023/06/01 02:33:59;123627.00;0.41;214.34;0.00;0.00;0.62;;;;;17.80;1.00;;;;;;2272788;61;1020;-86
2023/06/01 02:36:28;241179.00;0.80;416.78;0.00;0.00;0.62;;;;;17.60;1.00;;;;;;2272624;61;1589;-86
2023/06/01 02:38:56;252511.00;0.84;436.27;45836.00;0.15;79.98;;;;;17.60;1.00;;;;;;2272736;61;1041;-88
2023/06/01 02:41:22;210602.00;0.70;364.17;28301.00;0.09;49.64;;;;;17.70;1.00;;;;;;2272777;61;1063;-86
2023/06/01 02:43:50;98226.00;0.33;170.51;0.00;0.00;0.62;;;;;17.40;1.00;;;;;;2272693;61;2005;-86
2023/06/01 02:46:17;47179.00;0.16;82.31;0.00;0.00;0.62;;;;;17.40;1.00;;;;;;2272620;61;1297;-87
2023/06/01 02:48:44;39599.00;0.13;69.19;0.00;0.00;0.62;;;;;17.30;1.00;;;;;;2272740;61;1161;-86
2023/06/01 02:51:11;425659.00;1.42;733.92;8125.00;0.03;14.70;;;;;17.40;1.00;;;;;;2272747;61;1129;-87
2023/06/01 02:53:40;89705.00;0.30;155.80;0.00;0.00;0.62;;;;;17.60;1.00;;;;;;2272632;61;1024;-86
2023/06/01 02:56:07;188074.00;0.63;325.39;0.00;0.00;0.62;;;;;18.10;1.00;;;;;;2272643;61;1324;-86
2023/06/01 02:58:34;337115.00;1.12;581.72;126805.00;0.42;219.82;;;;;18.40;1.00;;;;;;2272651;61;1052;-86
2023/06/01 03:01:01;32118.00;0.11;56.25;0.00;0.00;0.62;;;;;18.20;1.00;;;;;;2272643;61;1082;-86
2023/06/01 03:03:28;31332.00;0.10;54.89;0.00;0.00;0.62;;;;;18.40;1.00;;;;;;2272523;61;1994;-86
2023/06/01 03:05:56;67870.00;0.23;118.08;0.00;0.00;0.62;;;;;17.70;1.00;;;;;;2272665;61;1273;-84
2023/06/01 03:08:25;99141.00;0.33;172.09;0.00;0.00;0.62;;;;;17.80;1.00;;;;;;2272639;61;1132;-86
2023/06/01 03:10:53;111073.00;0.37;192.68;0.00;0.00;0.62;;;;;17.70;1.00;;;;;;2272596;61;1146;-87
2023/06/01 03:13:20;123977.00;0.41;214.94;0.00;0.00;0.62;;;;;17.60;1.00;;;;;;2272635;61;1142;-87
2023/06/01 03:15:47;142124.00;0.47;246.23;0.00;0.00;0.62;;;;;17.40;1.00;;;;;;2272396;61;1303;-85
2023/06/01 03:18:13;27512.00;0.09;48.28;0.00;0.00;0.62;;;;;17.30;1.00;;;;;;2272646;61;1110;-86
2023/06/01 03:20:40;151558.00;0.51;262.49;0.00;0.00;0.62;;;;;17.20;1.00;;;;;;2272587;61;1122;-87
2023/06/01 03:23:07;194011.00;0.65;335.61;0.00;0.00;0.62;;;;;17.00;1.00;;;;;;2272599;61;1930;-86
2023/06/01 03:25:34;178692.00;0.60;309.24;21578.00;0.07;38.00;;;;;17.00;1.00;;;;;;2272495;61;1282;-86
2023/06/01 03:28:02;260638.00;0.87;450.25;20986.00;0.07;36.98;;;;;17.00;1.00;;;;;;2272547;61;1149;-85
2023/06/01 03:30:29;286373.00;0.95;494.49;38643.00;0.13;67.54;;;;;17.10;1.00;;;;;;2272569;61;1173;-87
2023/06/01 03:32:56;37866.00;0.13;66.20;0.00;0.00;0.62;;;;;17.10;1.00;;;;;;2272574;61;982;-87
2023/06/01 03:35:23;15083.00;0.05;26.75;0.00;0.00;0.62;;;;;17.20;1.00;;;;;;2272549;61;1313;-86
2023/06/01 03:37:50;559376.00;1.86;964.12;92168.00;0.31;160.05;;;;;17.30;1.00;;;;;;2272510;61;1198;-87
2023/06/01 03:40:17;217237.00;0.72;375.59;0.00;0.00;0.62;;;;;17.50;1.00;;;;;;2272501;61;1061;-87
2023/06/01 03:42:45;21589.00;0.07;38.02;0.00;0.00;0.62;;;;;17.60;1.00;;;;;;2272446;61;1912;-85
2023/06/01 03:45:15;207675.00;0.69;359.13;45744.00;0.15;79.83;;;;;17.40;1.00;;;;;;2272512;61;1384;-88
2023/06/01 03:47:42;108605.00;0.36;188.42;0.00;0.00;0.62;;;;;17.10;1.00;;;;;;2272531;61;1138;-87
2023/06/01 03:50:11;287905.00;0.96;497.13;87553.00;0.29;152.08;;;;;17.20;1.00;;;;;;2272505;61;1094;-87
2023/06/01 03:52:38;102379.00;0.34;177.68;0.00;0.00;0.62;;;;;17.20;1.00;;;;;;2272528;61;1143;-87
2023/06/01 03:55:09;48706.00;0.16;84.95;0.00;0.00;0.62;;;;;17.50;1.00;;;;;;2272464;61;1359;-87
2023/06/01 03:57:36;14336.00;0.05;25.46;0.00;0.00;0.62;;;;;17.60;1.00;;;;;;2272528;61;1083;-85
2023/06/01 04:00:17;63261.00;0.21;110.11;0.00;0.00;0.62;;;;;17.50;1.00;;;;;;2272489;61;958;-86
2023/06/01 04:02:48;2469.00;0.01;4.90;0.00;0.00;0.62;;;;;17.70;1.00;;;;;;2272471;61;1914;-84
2023/06/01 04:05:16;41484.00;0.14;72.46;0.00;0.00;0.62;;;;;17.50;1.00;;;;;;2272444;61;1289;-87
2023/06/01 04:07:45;62538.00;0.21;108.86;0.00;0.00;0.62;;;;;17.60;1.00;;;;;;2272462;61;1139;-86
2023/06/01 04:10:13;88481.00;0.29;153.68;0.00;0.00;0.62;;;;;17.40;1.00;;;;;;2272390;61;1012;-85
2023/06/01 04:12:41;190438.00;0.63;329.46;0.00;0.00;0.62;;;;;17.50;1.00;;;;;;2272461;61;1129;-86
2023/06/01 04:15:09;57921.00;0.19;100.88;0.00;0.00;0.62;;;;;17.30;1.00;;;;;;2272370;61;1610;-86
2023/06/01 04:17:37;5026.00;0.02;9.33;0.00;0.00;0.62;;;;;17.30;1.00;;;;;;2272372;61;1126;-86
2023/06/01 04:20:09;273739.00;0.91;472.77;33239.00;0.11;58.19;;;;;17.40;1.00;;;;;;2272467;61;988;-86
2023/06/01 04:22:36;23442.00;0.08;41.23;0.00;0.00;0.62;;;;;17.70;1.00;;;;;;2272330;61;1915;-86
2023/06/01 04:25:03;157798.00;0.53;273.25;0.00;0.00;0.62;;;;;17.70;1.00;;;;;;2272394;61;1297;-86
2023/06/01 04:27:29;237.00;0.00;1.03;0.00;0.00;0.62;;;;;17.50;1.00;;;;;;2272345;61;1095;-85
2023/06/01 04:29:58;104385.00;0.35;181.14;0.00;0.00;0.62;;;;;17.50;1.00;;;;;;2272407;61;1071;-86
2023/06/01 04:32:27;24314.00;0.08;42.74;0.00;0.00;0.62;;;;;17.40;1.00;;;;;;2272398;61;1132;-86
2023/06/01 04:34:56;65217.00;0.22;113.49;0.00;0.00;0.62;;;;;17.50;1.00;;;;;;2272355;61;1391;-86
2023/06/01 04:37:26;115794.00;0.39;200.83;0.00;0.00;0.62;;;;;17.80;1.00;;;;;;2272328;61;1228;-86
2023/06/01 04:39:52;55166.00;0.18;96.12;0.00;0.00;0.62;;;;;18.10;1.00;;;;;;2272267;61;1318;-87
2023/06/01 04:42:21;73341.00;0.24;127.53;0.00;0.00;0.62;;;;;18.40;1.00;;;;;;2272155;61;1055;-87
2023/06/01 04:44:49;143557.00;0.48;248.70;0.00;0.00;0.62;;;;;18.40;1.00;;;;;;2272200;61;1931;-88
2023/06/01 04:47:17;44557.00;0.15;77.77;0.00;0.00;0.62;;;;;18.60;1.00;;;;;;2272281;61;1040;-87
2023/06/01 04:49:44;211887.00;0.71;366.38;0.00;0.00;0.62;;;;;18.70;1.00;;;;;;2272174;61;1023;-87
2023/06/01 04:52:12;546934.00;1.82;942.67;105549.00;0.35;183.15;;;;;18.80;1.00;;;;;;2272318;61;1110;-87
2023/06/01 04:54:40;247127.00;0.82;427.01;0.00;0.00;0.62;;;;;19.00;1.00;;;;;;2272259;61;1258;-86
2023/06/01 04:57:07;212974.00;0.71;368.25;20474.00;0.07;36.09;;;;;19.00;1.00;;;;;;2272336;61;1197;-86
2023/06/01 04:59:34;202031.00;0.67;349.42;0.00;0.00;0.62;;;;;19.20;1.00;;;;;;2272308;61;888;-87
2023/06/01 05:02:01;174893.00;0.58;302.69;0.00;0.00;0.62;;;;;19.20;1.00;;;;;;2272181;61;1735;-86
2023/06/01 05:04:28;380031.00;1.27;655.48;127967.00;0.43;221.82;;;;;19.00;1.00;;;;;;2272292;61;1919;-87
2023/06/01 05:06:55;190795.00;0.64;330.08;0.00;0.00;0.62;;;;;19.10;1.00;;;;;;2272227;61;1187;-87
2023/06/01 05:09:22;66573.00;0.22;115.84;0.00;0.00;0.62;;;;;18.80;1.00;;;;;;2272339;61;1102;-86
2023/06/01 05:11:50;144722.00;0.48;250.71;0.00;0.00;0.62;;;;;18.30;1.00;;;;;;2272362;61;1098;-86
2023/06/01 05:14:17;39769.00;0.13;69.49;0.00;0.00;0.62;;;;;18.50;1.00;;;;;;2272297;61;1067;-86
2023/06/01 05:16:44;175343.00;0.58;303.47;0.00;0.00;0.62;;;;;18.60;1.00;;;;;;2272271;61;1410;-86
2023/06/01 05:19:12;94515.00;0.32;164.10;0.00;0.00;0.62;;;;;18.70;1.00;;;;;;2272272;61;1103;-86
2023/06/01 05:21:40;171790.00;0.57;297.35;0.00;0.00;0.62;;;;;18.80;1.00;;;;;;2272333;61;1049;-88
2023/06/01 05:24:07;465458.00;1.55;802.37;72213.00;0.24;125.58;;;;;18.60;1.00;;;;;;2272300;61;2001;-86
2023/06/01 05:26:34;222472.00;0.74;384.60;0.00;0.00;0.62;;;;;18.50;1.00;;;;;;2272302;61;1392;-88
2023/06/01 05:29:03;137208.00;0.46;237.76;0.00;0.00;0.62;;;;;18.30;1.00;;;;;;2272280;61;1162;-86
2023/06/01 05:31:30;37790.00;0.13;66.06;0.00;0.00;0.62;;;;;18.30;1.00;;;;;;2272316;61;1020;-86
2023/06/01 05:33:57;61442.00;0.20;106.97;0.00;0.00;0.62;;;;;18.50;1.00;;;;;;2272206;61;1081;-89
2023/06/01 05:36:24;188937.00;0.63;326.88;0.00;0.00;0.62;;;;;18.60;1.00;;;;;;2272214;61;1471;-87
2023/06/01 05:38:51;75268.00;0.25;130.86;0.00;0.00;0.62;;;;;18.90;1.00;;;;;;2272278;61;1096;-87
2023/06/01 05:41:18;95721.00;0.32;166.19;0.00;0.00;0.62;;;;;20.00;1.00;;;;;;2272193;61;1113;-88
2023/06/01 05:43:45;114938.00;0.38;199.35;0.00;0.00;0.62;;;;;22.10;1.00;;;;;;2272285;61;1984;-87
2023/06/01 05:46:13;57756.00;0.19;100.60;0.00;0.00;0.62;;;;;23.40;1.00;;;;;;2272202;61;1383;-87
2023/06/01 05:48:40;67230.00;0.22;116.97;0.00;0.00;0.62;;;;;24.80;1.00;;;;;;2272292;61;1021;-90
2023/06/01 05:51:07;13454.00;0.04;23.93;0.00;0.00;0.62;;;;;26.40;1.00;;;;;;2272187;61;1071;-88
2023/06/01 05:53:34;129139.00;0.43;223.84;0.00;0.00;0.62;;;;;27.50;1.00;;;;;;2272099;61;1063;-88
2023/06/01 05:56:01;79982.00;0.27;139.01;0.00;0.00;0.62;;;;;28.30;1.00;;;;;;2272165;61;1328;-88
2023/06/01 05:58:27;59430.00;0.20;103.49;0.00;0.00;0.62;;;;;28.60;1.00;;;;;;2272234;61;1026;-86
2023/06/01 06:00:54;25517.00;0.09;44.82;0.00;0.00;0.62;;;;;29.00;1.00;;;;;;2272212;61;1086;-88
2023/06/01 06:03:23;392166.00;1.31;676.34;108250.00;0.36;187.81;;;;;30.00;1.00;;;;;;2272141;61;2002;-90
2023/06/01 06:05:50;306185.00;1.02;528.55;101238.00;0.34;175.71;;;;;30.00;1.00;;;;;;2272095;61;1274;-88
2023/06/01 06:08:17;32127.00;0.11;56.26;0.00;0.00;0.62;;;;;30.70;1.00;;;;;;2272260;61;968;-88
2023/06/01 06:10:44;0.00;0.00;0.62;0.00;0.00;0.62;;;;;30.80;1.00;;;;;;2272264;61;1099;-88
2023/06/01 06:13:11;13087.00;0.04;23.30;0.00;0.00;0.62;;;;;31.10;1.00;;;;;;2272194;61;1102;-88
2023/06/01 06:15:38;0.00;0.00;0.62;0.00;0.00;0.62;;;;;31.30;1.00;;;;;;2272085;61;1392;-88
2023/06/01 06:18:05;2233.00;0.01;4.49;0.00;0.00;0.62;;;;;31.10;1.00;;;;;;2271975;61;1094;-89
2023/06/01 06:20:33;19014.00;0.06;33.56;0.00;0.00;0.62;;;;;32.10;1.00;;;;;;2272131;61;1119;-88
2023/06/01 06:23:00;79185.00;0.26;137.63;0.00;0.00;0.62;;;;;31.90;1.00;;;;;;2268471;61;1283;-88
2023/06/01 06:25:27;248552.00;0.83;429.46;95966.00;0.32;166.61;;;;;32.50;1.00;;;;;;2267589;61;1299;-88
2023/06/01 06:27:54;47819.00;0.16;83.41;0.00;0.00;0.62;;;;;32.80;1.00;;;;;;2267989;61;1711;-88
2023/06/01 06:30:22;0.00;0.00;0.62;0.00;0.00;0.62;;;;;33.30;1.00;;;;;;2268090;61;1126;-87
2023/06/01 06:32:49;9084.00;0.03;16.36;0.00;0.00;0.62;;;;;32.70;1.00;;;;;;2268029;61;1778;-89
2023/06/01 06:35:16;0.00;0.00;0.62;0.00;0.00;0.62;;;;;32.30;1.00;;;;;;2267985;61;1398;-87
2023/06/01 06:37:44;84402.00;0.28;146.64;0.00;0.00;0.62;;;;;33.70;1.00;;;;;;2268023;61;1014;-88
2023/06/01 06:40:12;42276.00;0.14;73.83;0.00;0.00;0.62;;;;;33.60;1.00;;;;;;2267984;61;1075;-88
2023/06/01 06:42:39;0.00;0.00;0.62;0.00;0.00;0.62;;;;;33.10;1.00;;;;;;2267952;61;1206;-88
2023/06/01 06:45:07;0.00;0.00;0.62;0.00;0.00;0.62;;;;;34.00;1.00;;;;;;2268003;61;1995;-88
2023/06/01 06:47:33;243305.00;0.81;420.44;0.00;0.00;0.62;;;;;33.50;1.00;;;;;;2268005;61;1083;-87
2023/06/01 06:55:06;163437.00;0.54;282.96;0.00;0.00;0.62;;;;;33.60;1.00;;;;;;1324418;40;3278;-90
2023/06/01 07:07:58;470767.00;1.57;811.51;0.00;0.00;0.62;;;;;34.20;1.00;;;;;;2184902;56;3521;-91
2023/06/01 07:10:26;661601.00;2.21;1140.71;11411.00;0.04;20.39;;;;;34.70;1.00;;;;;;2276187;41;3593;-88
2023/06/01 07:12:53;645629.00;2.15;1113.07;47673.00;0.16;83.16;;;;;35.20;1.00;;;;;;2282648;55;3777;-88
2023/06/01 07:15:21;484680.00;1.62;835.45;0.00;0.00;0.62;;;;;35.00;1.00;;;;;;2273044;55;3738;-88
2023/06/01 07:17:48;194263.00;0.65;336.05;0.00;0.00;0.62;;;;;35.10;1.00;;;;;;2296290;55;3786;-89
2023/06/01 07:22:44;930840.00;3.10;1610.35;49069.00;0.16;85.58;;;;;35.10;1.00;;;;;;2354210;55;3574;-90
2023/06/01 07:30:13;361075.00;1.20;622.90;0.00;0.00;0.62;;;;;34.60;1.00;;;;;;2270139;61;1306;-90
2023/06/01 07:32:40;512994.00;1.71;884.20;17553.00;0.06;31.03;;;;;33.90;1.00;;;;;;2288029;40;3584;-90
2023/06/01 07:40:12;461059.00;1.54;794.81;0.00;0.00;0.62;;;;;34.60;1.00;;;;;;1583107;56;3635;-89
2023/06/01 07:42:39;38000.00;0.13;66.43;0.00;0.00;0.62;;;;;34.70;1.00;;;;;;2278491;56;3763;-88
2023/06/01 07:47:43;165261.00;0.55;286.10;0.00;0.00;0.62;;;;;34.20;1.00;;;;;;1602969;59;2062;-88
2023/06/01 07:52:44;412743.00;1.38;711.71;0.00;0.00;0.62;;;;;33.90;1.00;;;;;;1576646;56;3595;-89
2023/06/01 07:57:40;73951.00;0.25;128.59;0.00;0.00;0.62;;;;;34.80;1.00;;;;;;2274036;61;1364;-87
2023/06/01 08:00:17;229604.00;0.77;396.87;0.00;0.00;0.62;;;;;34.70;1.00;;;;;;2274814;40;3555;-87
2023/06/01 08:07:49;206396.00;0.69;356.93;0.00;0.00;0.62;;;;;34.70;1.00;;;;;;2294758;55;3688;-89
2023/06/01 08:15:20;217922.00;0.73;376.77;0.00;0.00;0.62;;;;;34.20;1.00;;;;;;2308011;40;3521;-88
2023/06/01 08:17:47;208954.00;0.70;361.34;0.00;0.00;0.62;;;;;34.00;1.00;;;;;;2277750;56;3694;-89
2023/06/01 08:20:13;332481.00;1.11;573.75;54365.00;0.18;94.73;;;;;33.70;1.00;;;;;;2295041;56;3783;-86
2023/06/01 08:25:12;383963.00;1.28;662.24;0.00;0.00;0.62;;;;;33.80;1.00;;;;;;2297305;56;3590;-90
2023/06/01 08:30:15;692853.00;2.31;1194.85;58185.00;0.19;101.34;;;;;33.90;1.00;;;;;;1564435;56;3615;-89
2023/06/01 08:40:14;175847.00;0.59;304.34;0.00;0.00;0.62;;;;;32.80;1.00;;;;;;2273869;61;1226;-88
2023/06/01 08:42:50;17672.00;0.06;31.24;0.00;0.00;0.62;;;;;32.50;1.00;;;;;;2290451;55;3765;-89
2023/06/01 08:45:18;285610.00;0.95;493.18;0.00;0.00;0.62;;;;;32.30;1.00;;;;;;2276750;41;3706;-87
2023/06/01 08:50:16;594121.00;1.98;1024.07;73326.00;0.24;127.51;;;;;31.90;1.00;;;;;;2295992;40;3587;-88
2023/06/01 08:57:50;228467.00;0.76;394.91;0.00;0.00;0.62;;;;;32.40;1.00;;;;;;2379025;40;3467;-88
2023/06/01 09:02:46;539588.00;1.80;930.01;0.00;0.00;0.62;;;;;32.30;1.00;;;;;;1982569;41;3578;-89
2023/06/01 09:05:14;8458.00;0.03;15.28;0.00;0.00;0.62;;;;;32.50;1.00;;;;;;2282243;55;3807;-89
2023/06/01 09:15:25;363602.00;1.21;627.24;29490.00;0.10;51.70;;;;;32.50;1.00;;;;;;2342615;55;3606;-88
2023/06/01 09:18:05;20438.00;0.07;36.03;0.00;0.00;0.62;;;;;32.10;1.00;;;;;;2272253;61;1605;-88
2023/06/01 09:20:32;275900.00;0.92;476.49;49421.00;0.16;86.18;;;;;31.80;1.00;;;;;;2302965;56;3771;-88
2023/06/01 09:28:04;368505.00;1.23;635.67;0.00;0.00;0.62;;;;;30.60;1.00;;;;;;2321376;55;3722;-90
2023/06/01 09:33:16;322268.00;1.07;556.20;0.00;0.00;0.62;;;;;30.40;1.00;;;;;;2279697;56;3639;-89
2023/06/01 09:35:45;58412.00;0.19;101.73;0.00;0.00;0.62;;;;;30.10;1.00;;;;;;2382598;40;3653;-88
2023/06/01 09:43:23;577268.00;1.92;994.98;0.00;0.00;0.62;;;;;29.60;1.00;;;;;;2293085;56;3652;-88
2023/06/01 09:48:20;172479.00;0.57;298.54;0.00;0.00;0.62;;;;;29.90;1.00;;;;;;2274429;55;3673;-90
2023/06/01 09:56:01;257955.00;0.86;445.63;70893.00;0.24;123.30;;;;;29.50;1.00;;;;;;2273738;61;1404;-87
2023/06/01 10:01:03;336423.00;1.12;580.53;0.00;0.00;0.62;;;;;28.90;1.00;;;;;;2273239;61;1408;-89
2023/06/01 10:03:32;124579.00;0.42;215.98;0.00;0.00;0.62;;;;;28.90;1.00;;;;;;2271845;61;956;-88
2023/06/01 10:06:00;334487.00;1.11;577.20;107454.00;0.36;186.44;;;;;28.90;1.00;;;;;;2298436;55;3627;-89
2023/06/01 10:08:28;312146.00;1.04;538.80;105536.00;0.35;183.13;;;;;28.40;1.00;;;;;;2271802;61;924;-89
2023/06/01 10:13:25;525949.00;1.75;906.51;0.00;0.00;0.62;;;;;28.90;1.00;;;;;;2301954;41;3555;-88
2023/06/01 10:15:55;117969144.00;393.23;66502720.00;117600216.00;392.00;65880204.00;;;;;28.70;1.00;;;;;;2273437;55;3862;-88
2023/06/01 10:18:22;359457.00;1.20;620.12;117278.00;0.39;203.39;;;;;28.30;1.00;;;;;;2289519;55;3812;-88
2023/06/01 10:25:53;696721.00;2.32;1201.55;76163.00;0.25;132.41;;;;;27.60;1.00;;;;;;2269873;61;1938;-90
2023/06/01 10:28:21;283950.00;0.95;490.33;86518.00;0.29;150.29;;;;;27.60;1.00;;;;;;2268315;61;1538;-88
2023/06/01 10:31:23;425295.00;1.42;733.29;129665.00;0.43;224.75;;;;;27.80;1.00;;;;;;2268324;61;1495;-89
2023/06/01 10:33:53;433458.00;1.44;747.33;0.00;0.00;0.62;;;;;27.50;1.00;;;;;;2325888;41;4009;-87
2023/06/01 10:36:20;367744.00;1.23;634.36;0.00;0.00;0.62;;;;;27.10;1.00;;;;;;2272428;61;1330;-88
2023/06/01 10:41:31;671987.00;2.24;1158.69;79403.00;0.26;138.01;;;;;27.20;1.00;;;;;;2298000;40;3560;-89
2023/06/01 10:46:42;76376.00;0.25;132.78;0.00;0.00;0.62;;;;;27.60;1.00;;;;;;733039;59;1644;-89
2023/06/01 10:49:09;110837.00;0.37;192.27;0.00;0.00;0.62;;;;;28.00;1.00;;;;;;2273134;61;1794;-90
2023/06/01 10:54:31;357828.00;1.19;617.32;60672.00;0.20;105.64;;;;;28.20;1.00;;;;;;2292012;40;3488;-89
2023/06/01 10:59:29;501639.00;1.67;864.65;80967.00;0.27;140.71;;;;;28.30;1.00;;;;;;2289352;40;3543;-88
2023/06/01 11:02:05;175110.00;0.58;303.07;73734.00;0.25;128.21;;;;;28.30;1.00;;;;;;2272233;61;1666;-88
2023/06/01 11:04:39;546840.00;1.82;942.51;96214.00;0.32;167.04;;;;;28.30;1.00;;;;;;2272355;61;1974;-89
2023/06/01 11:07:38;341357.00;1.14;589.01;76682.00;0.26;133.31;;;;;28.30;1.00;;;;;;2311764;40;3642;-88
2023/06/01 11:10:05;319924.00;1.07;552.17;79961.00;0.27;138.97;;;;;28.80;1.00;;;;;;2272343;61;1702;-91
2023/06/01 11:13:12;83114.00;0.28;144.42;0.00;0.00;0.62;;;;;28.60;1.00;;;;;;2272281;61;1620;-89
2023/06/01 11:15:40;306673.00;1.02;529.39;80059.00;0.27;139.14;;;;;28.40;1.00;;;;;;2272317;61;1658;-88
2023/06/01 11:18:41;265669.00;0.89;458.90;0.00;0.00;0.62;;;;;28.10;1.00;;;;;;2272514;55;3800;-90
2023/06/01 11:21:12;532850.00;1.78;918.40;80430.00;0.27;139.78;;;;;28.20;1.00;;;;;;2301360;55;3747;-88
2023/06/01 11:23:40;562151.00;1.87;968.91;10108.00;0.03;18.14;;;;;28.60;1.00;;;;;;2272265;61;1587;-88
2023/06/01 11:26:08;528906.00;1.76;911.61;81782.00;0.27;142.12;;;;;28.70;1.00;;;;;;2282034;40;3598;-89
2023/06/01 11:28:36;326802.00;1.09;563.99;80501.00;0.27;139.90;;;;;28.70;1.00;;;;;;2272012;61;1714;-88
2023/06/01 11:31:10;355596.00;1.19;613.48;79575.00;0.27;138.30;;;;;28.50;1.00;;;;;;2292780;40;3591;-88
2023/06/01 11:38:42;486454.00;1.62;838.51;81271.00;0.27;141.23;;;;;28.70;1.00;;;;;;2296646;41;3479;-88
2023/06/01 12:24:14;1268290.00;4.23;2214.19;131681.00;0.44;228.23;;;;;29.10;1.00;;;;;;1995341;40;3648;-89
2023/06/01 12:50:15;507780.00;1.69;875.22;77799.00;0.26;135.24;;;;;29.30;1.00;;;;;;2266097;61;1465;-90
2023/06/01 13:00:23;526680.00;1.76;907.77;0.00;0.00;0.62;;;;;28.60;1.00;;;;;;2288835;40;3614;-89
2023/06/01 13:10:31;589877.00;1.97;1016.74;0.00;0.00;0.62;;;;;29.60;1.00;;;;;;2271542;55;3649;-88
2023/06/01 13:12:58;174779.00;0.58;302.50;0.00;0.00;0.62;;;;;29.20;1.00;;;;;;2332442;55;3846;-89
2023/06/01 13:20:32;462390.00;1.54;797.10;0.00;0.00;0.62;;;;;29.70;1.00;;;;;;792038;41;3426;-89
2023/06/01 13:40:43;134432.00;0.45;232.97;0.00;0.00;0.62;;;;;29.60;1.00;;;;;;1580175;40;2587;-88
2023/06/01 13:50:54;226347.00;0.75;391.26;0.00;0.00;0.62;;;;;30.20;1.00;;;;;;1958153;40;3145;-88
2023/06/01 13:55:50;401518.00;1.34;692.41;0.00;0.00;0.62;;;;;29.80;1.00;;;;;;2265546;61;1377;-89
2023/06/01 13:58:17;291511.00;0.97;503.33;0.00;0.00;0.62;;;;;29.60;1.00;;;;;;2315888;55;3823;-89
2023/06/01 14:03:14;578614.00;1.93;997.31;0.00;0.00;0.62;;;;;29.40;1.00;;;;;;1563456;56;3792;-88